Time;durP1;ratioP1;P1;durP2;ratioP2;P2;SDS_P1;SDS_P2;PMS_P1;PMS_P2;Temp;Humidity;BMP_temperature;BMP_pressure;BME280_temperature;BME280_humidity;BME280_pressure;Samples;Min_cycle;Max_cycle;Signal;HPM_P1;HPM_P2
2023/01/24 00:00:24;;;;;;;13.73;12.32;;;5.10;99.90;;;;;;2106010;28;20035;-71
2023/01/24 00:01:24;;;;;;;13.90;12.48;;;5.10;99.90;;;;;;2113489;27;20020;-71
2023/01/24 00:02:25;;;;;;;14.30;12.80;;;5.10;99.90;;;;;;2107312;28;20535;-71
2023/01/24 00:03:26;;;;;;;13.48;12.07;;;5.00;99.90;;;;;;2107005;28;20038;-71
2023/01/24 00:04:26;;;;;;;15.65;14.02;;;5.10;99.90;;;;;;2106617;28;20089;-70
2023/01/24 00:05:27;;;;;;;14.95;13.32;;;5.10;99.90;;;;;;2107498;28;20016;-71
2023/01/24 00:06:27;;;;;;;14.85;12.98;;;5.10;99.90;;;;;;2106563;28;20024;-71
2023/01/24 00:07:28;;;;;;;13.95;12.52;;;5.00;99.90;;;;;;2109295;28;20522;-71
2023/01/24 00:08:28;;;;;;;14.07;12.68;;;5.00;99.90;;;;;;2108926;28;20058;-71
2023/01/24 00:09:29;;;;;;;14.73;13.23;;;5.00;99.90;;;;;;2108210;28;20035;-71
2023/01/24 00:10:31;;;;;;;15.82;13.27;;;5.00;99.90;;;;;;2108903;28;20055;-71
2023/01/24 00:11:32;;;;;;;14.73;12.65;;;5.00;99.90;;;;;;2107889;28;20028;-71
2023/01/24 00:12:32;;;;;;;15.30;13.80;;;5.00;99.90;;;;;;2108068;28;20024;-71
2023/01/24 00:13:34;;;;;;;14.50;12.82;;;5.00;99.90;;;;;;2106357;28;20668;-71
2023/01/24 00:14:34;;;;;;;14.68;12.15;;;5.00;99.90;;;;;;2107251;28;20511;-70
2023/01/24 00:15:35;;;;;;;13.82;12.43;;;5.00;99.90;;;;;;2106744;28;20440;-70
2023/01/24 00:16:35;;;;;;;13.38;11.25;;;5.00;99.90;;;;;;2106955;28;20020;-71
2023/01/24 00:17:36;;;;;;;13.38;11.98;;;5.00;99.90;;;;;;2108392;28;20069;-71
2023/01/24 00:18:37;;;;;;;12.88;11.65;;;5.00;99.90;;;;;;2107743;28;20028;-71
2023/01/24 00:19:38;;;;;;;12.63;11.43;;;5.00;99.90;;;;;;2107083;28;20031;-71
2023/01/24 00:20:38;;;;;;;12.15;10.88;;;5.00;99.90;;;;;;2109124;28;20061;-71
2023/01/24 00:21:39;;;;;;;12.75;11.45;;;5.00;99.90;;;;;;2107803;28;20042;-71
2023/01/24 00:22:39;;;;;;;15.68;12.35;;;5.00;99.90;;;;;;2105848;28;20990;-71
2023/01/24 00:23:42;;;;;;;12.85;11.55;;;5.00;99.90;;;;;;2106422;28;20032;-71
2023/01/24 00:24:42;;;;;;;13.18;11.43;;;5.00;99.90;;;;;;2107861;28;20422;-71
2023/01/24 00:25:43;;;;;;;12.68;11.38;;;5.00;99.90;;;;;;2108694;28;20008;-70
2023/01/24 00:26:43;;;;;;;14.52;12.85;;;5.00;99.90;;;;;;2105783;28;20099;-70
2023/01/24 00:27:44;;;;;;;13.75;12.27;;;5.00;99.90;;;;;;2105003;28;20032;-71
2023/01/24 00:28:45;;;;;;;12.73;11.18;;;5.00;99.90;;;;;;2106316;28;20028;-71
2023/01/24 00:29:45;;;;;;;12.48;11.27;;;5.00;99.90;;;;;;2108071;28;20110;-71
2023/01/24 00:30:46;;;;;;;13.95;12.23;;;5.00;99.90;;;;;;2107910;28;20020;-71
2023/01/24 00:31:46;;;;;;;12.88;11.57;;;5.00;99.90;;;;;;2106494;28;20030;-71
2023/01/24 00:32:47;;;;;;;13.27;11.75;;;5.00;99.90;;;;;;2105320;28;20020;-71
2023/01/24 00:33:48;;;;;;;14.05;12.15;;;5.00;99.90;;;;;;2107042;28;20039;-71
2023/01/24 00:34:48;;;;;;;13.77;12.32;;;5.00;99.90;;;;;;2105999;28;20020;-71
2023/01/24 00:35:52;;;;;;;12.63;10.98;;;5.00;99.90;;;;;;2107105;28;20042;-71
2023/01/24 00:36:53;;;;;;;13.45;12.10;;;5.00;99.90;;;;;;2108780;28;20061;-70
2023/01/24 00:37:53;;;;;;;12.18;10.95;;;5.00;99.90;;;;;;2107971;28;20099;-71
2023/01/24 00:38:54;;;;;;;13.20;11.25;;;5.00;99.90;;;;;;2109178;28;20015;-71
2023/01/24 00:39:55;;;;;;;12.82;11.52;;;5.00;99.90;;;;;;2106056;28;20023;-71
2023/01/24 00:40:56;;;;;;;14.15;12.05;;;5.00;99.90;;;;;;2107776;28;20099;-71
2023/01/24 00:41:56;;;;;;;12.90;11.55;;;5.00;99.90;;;;;;2109888;28;20471;-70
2023/01/24 00:42:56;;;;;;;13.10;11.43;;;5.00;99.90;;;;;;2102156;28;20651;-72
2023/01/24 00:43:57;;;;;;;14.63;13.13;;;5.00;99.90;;;;;;2108277;28;20589;-71
2023/01/24 00:44:58;;;;;;;13.85;11.85;;;5.00;99.90;;;;;;2109001;28;20717;-71
2023/01/24 00:45:59;;;;;;;13.98;12.48;;;5.00;99.90;;;;;;2107893;28;20123;-71
2023/01/24 00:46:59;;;;;;;12.95;11.68;;;5.00;99.90;;;;;;2110289;28;20035;-71
2023/01/24 00:47:59;;;;;;;13.68;10.82;;;5.00;99.90;;;;;;2108487;28;20028;-70
2023/01/24 00:49:00;;;;;;;11.80;10.60;;;5.00;99.90;;;;;;2106072;28;20510;-70
2023/01/24 00:50:00;;;;;;;13.82;11.57;;;4.90;99.90;;;;;;2107812;28;20859;-71
2023/01/24 00:51:01;;;;;;;12.40;10.70;;;5.00;99.90;;;;;;2108752;28;20546;-70
2023/01/24 00:52:02;;;;;;;13.52;12.07;;;4.90;99.90;;;;;;2107850;28;20026;-71
2023/01/24 00:53:03;;;;;;;15.20;11.45;;;4.90;99.90;;;;;;2107636;28;20644;-70
2023/01/24 00:54:04;;;;;;;12.57;11.35;;;4.90;99.90;;;;;;2107182;28;20028;-71
2023/01/24 00:55:05;;;;;;;12.65;11.35;;;4.90;99.90;;;;;;2106275;28;20027;-70
2023/01/24 00:56:06;;;;;;;12.32;11.18;;;4.90;99.90;;;;;;2108713;28;20035;-71
2023/01/24 00:57:06;;;;;;;11.88;10.52;;;4.90;99.90;;;;;;2107646;28;20530;-71
2023/01/24 00:58:07;;;;;;;12.77;11.27;;;4.90;99.90;;;;;;2110190;28;20399;-71
2023/01/24 00:59:07;;;;;;;13.20;10.48;;;5.00;99.90;;;;;;2104610;28;20126;-71
2023/01/24 01:00:08;;;;;;;11.80;10.70;;;5.00;99.90;;;;;;2104644;28;20020;-71
2023/01/24 01:01:09;;;;;;;11.43;10.30;;;5.00;99.90;;;;;;2106195;28;20016;-71
2023/01/24 01:02:09;;;;;;;11.95;10.73;;;4.90;99.90;;;;;;2105250;28;20028;-71
2023/01/24 01:03:13;;;;;;;12.25;10.95;;;4.90;99.90;;;;;;2107449;28;20712;-70
2023/01/24 01:04:13;;;;;;;11.25;10.05;;;4.90;99.90;;;;;;2107530;28;20045;-71
2023/01/24 01:05:14;;;;;;;11.48;10.27;;;4.90;99.90;;;;;;2104836;28;20042;-70
2023/01/24 01:06:16;;;;;;;12.43;10.85;;;4.90;99.90;;;;;;2107653;28;20496;-71
2023/01/24 01:07:17;;;;;;;11.80;10.50;;;4.90;99.90;;;;;;2108121;28;20018;-71
2023/01/24 01:08:17;;;;;;;12.70;11.13;;;4.90;99.90;;;;;;2107179;28;20028;-70
2023/01/24 01:09:17;;;;;;;11.30;10.15;;;4.90;99.90;;;;;;2108498;28;20069;-71
2023/01/24 01:10:18;;;;;;;11.52;10.40;;;4.90;99.90;;;;;;2106037;28;20101;-70
2023/01/24 01:11:19;;;;;;;11.77;10.35;;;4.90;99.90;;;;;;2107280;28;20024;-70
2023/01/24 01:12:19;;;;;;;10.93;9.82;;;4.90;99.90;;;;;;2106101;28;20015;-71
2023/01/24 01:13:20;;;;;;;11.52;10.32;;;5.00;99.90;;;;;;2107594;28;20110;-71
2023/01/24 01:14:21;;;;;;;11.85;10.65;;;5.00;99.90;;;;;;2108574;28;20066;-71
2023/01/24 01:15:21;;;;;;;11.93;10.73;;;5.00;99.90;;;;;;2105207;28;20024;-71
2023/01/24 01:16:23;;;;;;;11.52;10.40;;;5.00;99.90;;;;;;2109502;28;20069;-71
2023/01/24 01:17:23;;;;;;;11.23;10.02;;;5.00;99.90;;;;;;2110358;28;20595;-71
2023/01/24 01:18:24;;;;;;;12.10;10.90;;;5.00;99.90;;;;;;2107357;28;20577;-71
2023/01/24 01:19:24;;;;;;;11.55;10.45;;;5.00;99.90;;;;;;2108021;28;20039;-71
2023/01/24 01:20:26;;;;;;;12.40;10.13;;;5.00;99.90;;;;;;2105604;28;20043;-71
2023/01/24 01:21:27;;;;;;;11.20;10.10;;;5.00;99.90;;;;;;2107699;28;20531;-71
2023/01/24 01:22:27;;;;;;;10.70;9.60;;;5.00;99.90;;;;;;2105750;28;20689;-71
2023/01/24 01:23:28;;;;;;;11.52;10.43;;;5.00;99.90;;;;;;2108328;28;20039;-71
2023/01/24 01:24:29;;;;;;;10.80;9.70;;;5.00;99.90;;;;;;2108117;28;20076;-70
2023/01/24 01:25:29;;;;;;;11.00;9.90;;;5.00;99.90;;;;;;2108079;28;20028;-70
2023/01/24 01:26:31;;;;;;;11.57;10.38;;;5.00;99.90;;;;;;2106576;28;20055;-70
2023/01/24 01:27:32;;;;;;;10.70;9.70;;;5.00;99.90;;;;;;2107334;28;20047;-70
2023/01/24 01:28:33;;;;;;;11.38;10.23;;;4.90;99.90;;;;;;2106427;28;20039;-70
2023/01/24 01:29:33;;;;;;;11.48;10.27;;;4.90;99.90;;;;;;2106610;28;20605;-71
2023/01/24 01:30:34;;;;;;;11.05;9.95;;;4.90;99.90;;;;;;2106495;28;20463;-70
2023/01/24 01:31:35;;;;;;;10.60;9.60;;;4.90;99.90;;;;;;2108154;28;20034;-70
2023/01/24 01:32:36;;;;;;;11.50;10.30;;;4.90;99.90;;;;;;2101076;28;20027;-70
2023/01/24 01:33:36;;;;;;;11.32;10.23;;;4.90;99.90;;;;;;2110580;28;20031;-70
2023/01/24 01:34:37;;;;;;;11.18;9.93;;;4.90;99.90;;;;;;2107950;28;20024;-70
2023/01/24 01:35:37;;;;;;;12.00;10.27;;;4.90;99.90;;;;;;2106523;28;20436;-71
2023/01/24 01:36:38;;;;;;;11.52;10.32;;;4.90;99.90;;;;;;2108340;28;20084;-71
2023/01/24 01:37:38;;;;;;;11.82;10.63;;;4.90;99.90;;;;;;2108468;28;20519;-71
2023/01/24 01:38:39;;;;;;;10.95;9.85;;;4.90;99.90;;;;;;2107858;28;20038;-71
2023/01/24 01:39:39;;;;;;;10.98;9.88;;;4.90;99.90;;;;;;2106732;28;20496;-71
2023/01/24 01:40:40;;;;;;;10.27;9.27;;;4.90;99.90;;;;;;2107694;28;20016;-70
2023/01/24 01:41:41;;;;;;;10.23;9.23;;;4.90;99.90;;;;;;2107661;28;20008;-71
2023/01/24 01:42:53;;;;;;;11.10;10.00;;;4.90;99.90;;;;;;2107869;28;20074;-71
2023/01/24 01:45:44;;;;;;;10.27;9.20;;;4.90;99.90;;;;;;2106525;28;20031;-71
2023/01/24 01:46:50;;;;;;;10.70;9.63;;;4.90;99.90;;;;;;2107369;28;20042;-70
2023/01/24 01:47:50;;;;;;;10.32;9.32;;;4.90;99.90;;;;;;2107069;28;20157;-70
2023/01/24 01:48:55;;;;;;;10.93;9.82;;;4.90;99.90;;;;;;2107354;28;20019;-70
2023/01/24 01:50:25;;;;;;;10.30;9.30;;;4.90;99.90;;;;;;2105616;28;20024;-71
2023/01/24 01:51:30;;;;;;;;;;;4.90;99.90;;;;;;2104715;28;20060;-70
2023/01/24 01:52:36;;;;;;;10.57;9.57;;;4.70;99.90;;;;;;2108252;28;20060;-71
2023/01/24 01:53:46;;;;;;;9.90;8.90;;;4.70;99.90;;;;;;2106329;28;20020;-70
2023/01/24 01:54:47;;;;;;;10.70;9.60;;;4.70;99.90;;;;;;2107388;28;20031;-70
2023/01/24 01:55:51;;;;;;;11.57;9.93;;;4.80;99.90;;;;;;2105877;28;20020;-71
2023/01/24 01:56:55;;;;;;;9.00;8.13;;;4.70;99.90;;;;;;2106422;28;20028;-72
2023/01/24 01:57:55;;;;;;;10.52;9.50;;;4.70;99.90;;;;;;2108551;28;20019;-71
2023/01/24 01:59:00;;;;;;;10.77;9.68;;;4.70;99.90;;;;;;2106912;28;20028;-70
2023/01/24 02:00:15;;;;;;;9.35;8.50;;;4.70;99.90;;;;;;2107608;28;20039;-70
2023/01/24 02:01:15;;;;;;;10.05;8.93;;;4.70;99.90;;;;;;2107506;28;20034;-71
2023/01/24 02:02:19;;;;;;;10.48;9.40;;;4.70;99.90;;;;;;2106924;28;20019;-70
2023/01/24 02:03:38;;;;;;;9.70;8.73;;;4.80;99.90;;;;;;2107409;28;20572;-70
2023/01/24 02:04:46;;;;;;;10.00;9.00;;;4.80;99.90;;;;;;2107696;28;20076;-71
2023/01/24 02:05:48;;;;;;;10.52;9.45;;;4.80;99.90;;;;;;2108478;28;20029;-70
2023/01/24 02:07:09;;;;;;;9.75;8.75;;;4.80;99.90;;;;;;2107182;28;20024;-70
2023/01/24 02:08:15;;;;;;;10.38;9.38;;;4.80;99.90;;;;;;2106961;28;20039;-70
2023/01/24 02:09:21;;;;;;;10.02;9.13;;;4.80;99.90;;;;;;2106940;28;20027;-70
2023/01/24 02:10:24;;;;;;;9.70;8.80;;;4.80;99.90;;;;;;2106717;28;20073;-71
2023/01/24 02:11:39;;;;;;;10.00;9.00;;;4.80;99.90;;;;;;2107480;28;20039;-71
2023/01/24 02:12:43;;;;;;;11.35;8.88;;;4.80;99.90;;;;;;2107867;28;20077;-71
2023/01/24 02:13:45;;;;;;;10.52;9.43;;;4.80;99.90;;;;;;2108774;28;20368;-71
2023/01/24 02:16:14;;;;;;;9.90;8.90;;;4.80;99.90;;;;;;2108012;28;20019;-71
2023/01/24 02:17:19;;;;;;;10.27;9.18;;;4.80;99.90;;;;;;2109842;28;20032;-71
2023/01/24 02:18:20;;;;;;;10.85;9.73;;;4.80;99.90;;;;;;2107214;28;20013;-71
2023/01/24 02:19:49;;;;;;;9.50;8.55;;;4.80;99.90;;;;;;2107667;28;20073;-71
2023/01/24 02:20:49;;;;;;;10.07;9.15;;;4.80;99.90;;;;;;2107298;28;20035;-70
2023/01/24 02:22:00;;;;;;;10.23;9.13;;;4.80;99.90;;;;;;2106555;28;20505;-70
2023/01/24 02:23:00;;;;;;;;;;;4.80;99.90;;;;;;2111194;28;20852;-70
2023/01/24 02:24:21;;;;;;;9.77;8.77;;;4.70;99.90;;;;;;2108655;28;20037;-71
2023/01/24 02:25:37;;;;;;;10.40;9.30;;;4.80;99.90;;;;;;2108042;28;20487;-71
2023/01/24 02:26:38;;;;;;;9.52;8.52;;;4.80;99.90;;;;;;2111093;28;20035;-71
2023/01/24 02:27:39;;;;;;;10.88;9.77;;;4.70;99.90;;;;;;2109475;28;20616;-71
2023/01/24 02:28:44;;;;;;;10.18;9.18;;;4.80;99.90;;;;;;2109617;28;20035;-71
2023/01/24 02:29:45;;;;;;;10.75;9.60;;;4.80;99.90;;;;;;2106965;28;20046;-71
2023/01/24 02:30:46;;;;;;;10.32;9.32;;;4.80;99.90;;;;;;2109737;28;20055;-71
2023/01/24 02:31:59;;;;;;;10.25;9.25;;;4.80;99.90;;;;;;2107540;28;20076;-71
2023/01/24 02:33:09;;;;;;;10.68;9.65;;;4.80;99.90;;;;;;2108520;28;20032;-71
2023/01/24 02:34:09;;;;;;;11.20;10.10;;;4.80;99.90;;;;;;2109604;28;20114;-71
2023/01/24 02:35:31;;;;;;;10.13;9.13;;;4.80;99.90;;;;;;2110160;28;20031;-70
2023/01/24 02:36:37;;;;;;;10.00;8.98;;;4.80;99.90;;;;;;2108311;28;20058;-71
2023/01/24 02:37:38;;;;;;;10.20;9.10;;;4.80;99.90;;;;;;2107897;28;20034;-71
2023/01/24 02:38:42;;;;;;;10.65;9.60;;;4.80;99.90;;;;;;2108332;28;20024;-70
2023/01/24 02:40:02;;;;;;;11.18;9.60;;;4.80;99.90;;;;;;2107169;28;20012;-70
2023/01/24 02:41:06;;;;;;;11.15;9.93;;;4.70;99.90;;;;;;2107834;28;20031;-70
2023/01/24 02:42:20;;;;;;;10.88;9.75;;;4.70;99.90;;;;;;2108575;28;20028;-70
2023/01/24 02:43:25;;;;;;;9.98;8.98;;;4.70;99.90;;;;;;2108599;28;20701;-70
2023/01/24 02:44:51;;;;;;;10.00;9.05;;;4.70;99.90;;;;;;2110218;28;20016;-71
2023/01/24 02:45:51;;;;;;;11.23;10.02;;;4.70;99.90;;;;;;2102320;28;20050;-70
2023/01/24 02:46:52;;;;;;;10.68;9.55;;;4.70;99.90;;;;;;2109865;27;20028;-71
2023/01/24 02:47:54;;;;;;;11.02;9.73;;;4.70;99.90;;;;;;2108181;28;20034;-70
2023/01/24 02:48:55;;;;;;;10.20;9.10;;;4.70;99.90;;;;;;2106939;28;20433;-71
2023/01/24 02:49:55;;;;;;;10.27;9.27;;;4.70;99.90;;;;;;2107820;28;20032;-70
2023/01/24 02:53:34;;;;;;;9.95;8.95;;;4.70;99.90;;;;;;2109132;28;20032;-70
2023/01/24 02:54:35;;;;;;;9.48;8.52;;;4.70;99.90;;;;;;2109048;28;20015;-70
2023/01/24 02:58:05;;;;;;;10.13;9.13;;;4.70;99.90;;;;;;2107473;28;20072;-71
2023/01/24 02:58:15;;;;;;;10.48;9.43;;;4.70;99.90;;;;;;2109401;28;20437;-70
2023/01/24 02:59:16;;;;;;;10.38;8.98;;;4.70;99.90;;;;;;2110340;28;20015;-70
2023/01/24 03:00:17;;;;;;;9.75;8.75;;;4.70;99.90;;;;;;2108037;28;20019;-70
2023/01/24 03:01:18;;;;;;;9.90;8.90;;;4.70;99.90;;;;;;2108821;28;20047;-70
2023/01/24 03:02:18;;;;;;;10.02;8.40;;;4.80;99.90;;;;;;2108479;28;20063;-70
2023/01/24 03:03:19;;;;;;;9.40;8.50;;;4.70;99.90;;;;;;2106925;28;20542;-70
2023/01/24 03:04:20;;;;;;;9.32;8.43;;;4.70;99.90;;;;;;2107893;28;20024;-71
2023/01/24 03:05:21;;;;;;;9.95;9.00;;;4.70;99.90;;;;;;2108575;28;20031;-71
2023/01/24 03:06:21;;;;;;;9.20;8.40;;;4.80;99.90;;;;;;2109051;28;20679;-70
2023/01/24 03:07:22;;;;;;;9.65;8.73;;;4.80;99.90;;;;;;2107748;28;20027;-71
2023/01/24 03:08:24;;;;;;;10.18;9.07;;;4.80;99.90;;;;;;2106953;28;20078;-71
2023/01/24 03:09:34;;;;;;;10.27;9.30;;;4.80;99.90;;;;;;2108440;28;20020;-71
2023/01/24 03:10:35;;;;;;;9.70;8.70;;;4.80;99.90;;;;;;2108490;28;20027;-71
2023/01/24 03:11:35;;;;;;;9.45;8.55;;;4.80;99.90;;;;;;2108259;28;20103;-71
2023/01/24 03:35:04;;;;;;;8.85;7.95;;;4.60;99.90;;;;;;2107091;28;20051;-71
2023/01/24 03:36:06;;;;;;;10.18;9.13;;;4.60;99.90;;;;;;2105212;28;20023;-70
2023/01/24 03:37:06;;;;;;;8.98;8.10;;;4.70;99.90;;;;;;2106553;28;20050;-70
2023/01/24 03:40:45;;;;;;;8.82;7.90;;;4.60;99.90;;;;;;2106533;28;20028;-70
2023/01/24 03:41:46;;;;;;;10.35;9.35;;;4.70;99.90;;;;;;2109122;28;20054;-70
2023/01/24 03:42:47;;;;;;;9.18;8.27;;;4.70;99.90;;;;;;2108268;28;20098;-70
2023/01/24 03:43:48;;;;;;;9.88;8.45;;;4.70;99.90;;;;;;2107489;28;20016;-70
2023/01/24 03:44:48;;;;;;;9.93;8.93;;;4.70;99.90;;;;;;2106457;28;20047;-70
2023/01/24 03:45:52;;;;;;;9.10;8.20;;;4.70;99.90;;;;;;2116749;27;20031;-70
2023/01/24 03:46:52;;;;;;;10.05;9.05;;;4.70;99.90;;;;;;2116288;27;20085;-70
2023/01/24 03:47:55;;;;;;;10.13;9.10;;;4.70;99.90;;;;;;2108201;28;20028;-70
2023/01/24 03:48:56;;;;;;;9.77;8.82;;;4.70;99.90;;;;;;2107124;28;20474;-70
2023/01/24 03:52:35;;;;;;;11.05;9.60;;;4.70;99.90;;;;;;2108486;28;20476;-70
2023/01/24 03:53:35;;;;;;;8.60;7.80;;;4.70;99.90;;;;;;2107905;28;20437;-70
2023/01/24 03:54:36;;;;;;;8.98;8.07;;;4.60;99.90;;;;;;2108411;28;20120;-70
2023/01/24 03:55:36;;;;;;;9.43;8.57;;;4.60;99.90;;;;;;2106023;28;20034;-71
2023/01/24 03:56:37;;;;;;;9.93;8.93;;;4.60;99.90;;;;;;2108014;28;20085;-71
2023/01/24 03:57:37;;;;;;;10.02;8.57;;;4.60;99.90;;;;;;2108801;28;20024;-71
2023/01/24 03:58:38;;;;;;;9.85;8.90;;;4.60;99.90;;;;;;2108439;28;20139;-71
2023/01/24 03:59:38;;;;;;;9.90;8.57;;;4.70;99.90;;;;;;2106037;28;20023;-70
2023/01/24 04:00:39;;;;;;;10.10;9.10;;;4.60;99.90;;;;;;2108442;28;20028;-70
2023/01/24 04:01:40;;;;;;;10.07;8.55;;;4.70;99.90;;;;;;2106611;28;20097;-70
2023/01/24 04:02:40;;;;;;;11.45;10.25;;;4.70;99.90;;;;;;2106439;28;20039;-70
2023/01/24 04:03:41;;;;;;;10.07;9.07;;;4.70;99.90;;;;;;2107069;28;20031;-71
2023/01/24 04:06:00;;;;;;;9.63;8.55;;;4.70;99.90;;;;;;2106834;28;20020;-70
2023/01/24 04:07:01;;;;;;;9.93;8.93;;;4.70;99.90;;;;;;2107552;28;20069;-71
2023/01/24 04:08:03;;;;;;;10.73;9.73;;;4.70;99.90;;;;;;2109171;28;20036;-71
2023/01/24 04:09:03;;;;;;;10.35;9.35;;;4.70;99.90;;;;;;2108332;28;20020;-71
2023/01/24 04:10:05;;;;;;;12.48;10.30;;;4.70;99.90;;;;;;2106489;28;20024;-71
2023/01/24 04:11:05;;;;;;;10.63;9.43;;;4.70;99.90;;;;;;2107957;28;20030;-70
2023/01/24 04:12:06;;;;;;;11.25;10.05;;;4.70;99.90;;;;;;2106339;28;20035;-70
2023/01/24 04:13:09;;;;;;;10.75;9.65;;;4.70;99.90;;;;;;2108219;28;20028;-71
2023/01/24 04:14:09;;;;;;;10.25;9.25;;;4.70;99.90;;;;;;2107978;28;20032;-71
2023/01/24 04:15:16;;;;;;;10.13;9.02;;;4.70;99.90;;;;;;2106347;28;20055;-71
2023/01/24 04:16:16;;;;;;;9.85;8.90;;;4.70;99.90;;;;;;2109875;28;20383;-71
2023/01/24 04:17:17;;;;;;;10.55;9.45;;;4.70;99.90;;;;;;2107670;27;20024;-71
2023/01/24 04:18:17;;;;;;;10.23;9.23;;;4.70;99.90;;;;;;2107599;28;20032;-71
2023/01/24 04:19:18;;;;;;;11.20;10.00;;;4.70;99.90;;;;;;2107736;28;20081;-70
2023/01/24 04:20:19;;;;;;;10.02;9.02;;;4.70;99.90;;;;;;2107273;28;20115;-70
2023/01/24 04:21:19;;;;;;;10.27;9.27;;;4.70;99.90;;;;;;2107322;28;20505;-70
2023/01/24 04:22:20;;;;;;;12.20;9.98;;;4.70;99.90;;;;;;2115716;27;20475;-71
2023/01/24 04:23:20;;;;;;;10.50;9.43;;;4.70;99.90;;;;;;2108543;28;20542;-71
2023/01/24 04:24:20;;;;;;;10.88;9.70;;;4.70;99.90;;;;;;2109537;28;20024;-70
2023/01/24 04:25:21;;;;;;;11.30;10.15;;;4.70;99.90;;;;;;2108078;28;20106;-70
2023/01/24 04:26:22;;;;;;;10.45;9.43;;;4.60;99.90;;;;;;2108124;28;20038;-70
2023/01/24 04:27:22;;;;;;;10.13;9.13;;;4.60;99.90;;;;;;2110136;28;20050;-70
2023/01/24 04:28:24;;;;;;;10.77;9.68;;;4.60;99.90;;;;;;2108256;28;20047;-70
2023/01/24 04:29:24;;;;;;;10.70;9.68;;;4.60;99.90;;;;;;2108808;28;20051;-70
2023/01/24 04:30:25;;;;;;;11.38;10.18;;;4.60;99.90;;;;;;2107680;28;20038;-71
2023/01/24 04:31:25;;;;;;;11.10;10.00;;;4.60;99.90;;;;;;2105394;28;20071;-71
2023/01/24 04:32:28;;;;;;;11.05;9.95;;;4.60;99.90;;;;;;2106998;28;20028;-71
2023/01/24 04:33:28;;;;;;;10.07;9.07;;;4.60;99.90;;;;;;2106162;28;20015;-71
2023/01/24 04:34:29;;;;;;;11.85;10.57;;;4.60;99.90;;;;;;2111782;28;20023;-71
2023/01/24 04:35:29;;;;;;;11.32;10.23;;;4.60;99.90;;;;;;2111426;28;20053;-71
2023/01/24 04:36:30;;;;;;;11.30;9.93;;;4.60;99.90;;;;;;2108134;28;20035;-71
2023/01/24 04:37:32;;;;;;;11.40;10.20;;;4.70;99.90;;;;;;2108439;28;20130;-71
2023/01/24 04:38:32;;;;;;;10.30;9.15;;;4.70;99.90;;;;;;2106214;28;20024;-71
2023/01/24 04:39:33;;;;;;;11.13;10.02;;;4.70;99.90;;;;;;2106961;28;20438;-71
2023/01/24 04:40:33;;;;;;;10.77;9.63;;;4.70;99.90;;;;;;2105267;28;20432;-71
2023/01/24 04:41:34;;;;;;;11.07;9.98;;;4.70;99.90;;;;;;2108138;28;20019;-71
2023/01/24 04:42:34;;;;;;;11.90;10.73;;;4.70;99.90;;;;;;2108396;28;20139;-71
2023/01/24 04:43:35;;;;;;;11.25;10.20;;;4.70;99.90;;;;;;2106448;28;20028;-71
2023/01/24 04:44:35;;;;;;;10.63;9.38;;;4.70;99.90;;;;;;2108129;28;20023;-70
2023/01/24 04:45:36;;;;;;;11.85;9.68;;;4.70;99.90;;;;;;2107074;28;20100;-71
2023/01/24 04:46:36;;;;;;;11.98;10.75;;;4.70;99.90;;;;;;2108636;28;20049;-71
2023/01/24 04:47:37;;;;;;;11.45;10.27;;;4.70;99.90;;;;;;2108090;28;20964;-71
2023/01/24 04:48:38;;;;;;;10.88;9.85;;;4.70;99.90;;;;;;2107361;28;20030;-71
2023/01/24 04:49:41;;;;;;;11.48;10.27;;;4.70;99.90;;;;;;2107174;28;20052;-71
2023/01/24 04:50:41;;;;;;;12.60;11.30;;;4.70;99.90;;;;;;2108302;28;20011;-71
2023/01/24 04:51:42;;;;;;;10.95;9.85;;;4.70;99.90;;;;;;2107873;28;20061;-71
2023/01/24 04:52:43;;;;;;;11.05;10.00;;;4.70;99.90;;;;;;2106045;28;20031;-71
2023/01/24 04:53:43;;;;;;;11.57;10.32;;;4.70;99.90;;;;;;2107496;28;20031;-71
2023/01/24 04:54:44;;;;;;;11.63;10.43;;;4.70;99.90;;;;;;2107783;28;20028;-71
2023/01/24 04:55:44;;;;;;;11.75;10.63;;;4.70;99.90;;;;;;2106053;28;20138;-71
2023/01/24 04:56:45;;;;;;;10.98;9.88;;;4.70;99.90;;;;;;2107759;28;20055;-71
2023/01/24 04:57:45;;;;;;;11.57;10.40;;;4.70;99.90;;;;;;2107737;28;20767;-71
2023/01/24 04:58:46;;;;;;;12.23;10.98;;;4.70;99.90;;;;;;2107084;28;20036;-71
2023/01/24 04:59:46;;;;;;;12.82;11.38;;;4.70;99.90;;;;;;2106927;28;20118;-71
2023/01/24 05:00:48;;;;;;;11.25;10.15;;;4.70;99.90;;;;;;2107269;28;20471;-71
2023/01/24 05:01:48;;;;;;;11.45;10.35;;;4.70;99.90;;;;;;2108894;28;20028;-71
2023/01/24 05:02:51;;;;;;;11.32;10.23;;;4.70;99.90;;;;;;2106805;28;20032;-70
2023/01/24 05:03:58;;;;;;;11.88;10.65;;;4.70;99.90;;;;;;2108322;28;20024;-70
2023/01/24 05:04:58;;;;;;;11.82;10.63;;;4.70;99.90;;;;;;2106181;28;20028;-70
2023/01/24 05:05:59;;;;;;;11.73;10.52;;;4.70;99.90;;;;;;2106248;28;20054;-70
2023/01/24 05:06:59;;;;;;;11.70;10.50;;;4.70;99.90;;;;;;2108398;28;21526;-70
2023/01/24 05:08:00;;;;;;;11.32;10.27;;;4.70;99.90;;;;;;2106416;28;20155;-71
2023/01/24 05:09:01;;;;;;;10.65;9.57;;;4.70;99.90;;;;;;2107252;28;20479;-71
2023/01/24 05:10:02;;;;;;;12.02;10.77;;;4.70;99.90;;;;;;2106968;28;20038;-71
2023/01/24 05:11:04;;;;;;;12.10;10.75;;;4.70;99.90;;;;;;2108831;28;20377;-71
2023/01/24 05:12:05;;;;;;;11.45;10.35;;;4.70;99.90;;;;;;2106102;28;20141;-71
2023/01/24 05:13:05;;;;;;;10.63;9.63;;;4.70;99.90;;;;;;2107082;28;20112;-71
2023/01/24 05:14:09;;;;;;;11.05;9.90;;;4.70;99.90;;;;;;2107521;28;20023;-71
2023/01/24 05:15:09;;;;;;;11.93;10.77;;;4.70;99.90;;;;;;2106841;28;20051;-71
2023/01/24 05:16:10;;;;;;;11.98;10.60;;;4.70;99.90;;;;;;2105397;28;20016;-70
2023/01/24 05:17:10;;;;;;;12.15;10.73;;;4.70;99.90;;;;;;2106109;28;20666;-71
2023/01/24 05:18:11;;;;;;;12.50;11.30;;;4.70;99.90;;;;;;2107663;28;20032;-71
2023/01/24 05:19:11;;;;;;;12.55;10.88;;;4.70;99.90;;;;;;2109755;28;20487;-71
2023/01/24 05:20:12;;;;;;;12.20;11.00;;;4.70;99.90;;;;;;2107052;28;20656;-71
2023/01/24 05:21:17;;;;;;;11.13;10.10;;;4.60;99.90;;;;;;2109283;28;20100;-71
2023/01/24 05:22:17;;;;;;;12.10;10.85;;;4.70;99.90;;;;;;2107832;28;20551;-71
2023/01/24 05:23:18;;;;;;;12.15;10.68;;;4.60;99.90;;;;;;2109426;28;20123;-71
2023/01/24 05:24:18;;;;;;;11.13;10.02;;;4.60;99.90;;;;;;2107716;28;20476;-71
2023/01/24 05:25:19;;;;;;;12.10;10.90;;;4.60;99.90;;;;;;2105112;28;20665;-71
2023/01/24 05:26:22;;;;;;;11.73;10.52;;;4.60;99.90;;;;;;2105468;28;20016;-71
2023/01/24 05:27:22;;;;;;;11.90;10.63;;;4.60;99.90;;;;;;2107026;28;20919;-71
2023/01/24 05:28:23;;;;;;;11.90;10.75;;;4.60;99.90;;;;;;2106853;28;20638;-71
2023/01/24 05:29:23;;;;;;;12.27;11.05;;;4.60;99.90;;;;;;2109165;28;20077;-70
2023/01/24 05:30:24;;;;;;;11.68;10.52;;;4.60;99.90;;;;;;2109492;28;20051;-70
2023/01/24 05:31:24;;;;;;;11.57;10.38;;;4.60;99.90;;;;;;2105934;28;20476;-70
2023/01/24 05:32:26;;;;;;;12.00;10.57;;;4.60;99.90;;;;;;2107048;28;20028;-70
2023/01/24 05:33:27;;;;;;;11.05;9.95;;;4.60;99.90;;;;;;2106641;28;20023;-70
2023/01/24 05:34:27;;;;;;;11.95;10.85;;;4.60;99.90;;;;;;2107086;28;20038;-71
2023/01/24 05:35:28;;;;;;;10.95;9.95;;;4.60;99.90;;;;;;2106660;28;20043;-71
2023/01/24 05:36:28;;;;;;;12.02;10.75;;;4.60;99.90;;;;;;2105904;28;20031;-71
2023/01/24 05:37:29;;;;;;;11.80;10.60;;;4.60;99.90;;;;;;2106170;28;20040;-70
2023/01/24 05:38:29;;;;;;;11.80;10.65;;;4.60;99.90;;;;;;2106407;28;20069;-70
2023/01/24 05:39:30;;;;;;;11.70;10.57;;;4.60;99.90;;;;;;2108341;28;20043;-71
2023/01/24 05:40:30;;;;;;;11.80;10.55;;;4.60;99.90;;;;;;2109151;28;20023;-71
2023/01/24 05:41:31;;;;;;;11.90;10.77;;;4.60;99.90;;;;;;2106778;28;20032;-71
2023/01/24 05:42:31;;;;;;;12.18;10.98;;;4.60;99.90;;;;;;2106697;28;20024;-71
2023/01/24 05:43:33;;;;;;;12.00;10.82;;;4.60;99.90;;;;;;2106585;28;20020;-70
2023/01/24 05:44:33;;;;;;;12.18;10.98;;;4.50;99.90;;;;;;2106351;28;20024;-71
2023/01/24 05:45:34;;;;;;;11.80;10.70;;;4.60;99.90;;;;;;2109910;28;20061;-71
2023/01/24 05:46:34;;;;;;;12.32;11.00;;;4.60;99.90;;;;;;2109770;28;20065;-71
2023/01/24 05:47:35;;;;;;;12.38;11.18;;;4.60;99.90;;;;;;2109038;28;20020;-71
2023/01/24 05:48:36;;;;;;;11.40;10.35;;;4.60;99.90;;;;;;2108971;28;20099;-71
2023/01/24 05:49:36;;;;;;;12.32;11.10;;;4.60;99.90;;;;;;2109194;28;20026;-71
2023/01/24 05:50:37;;;;;;;12.20;10.85;;;4.60;99.90;;;;;;2110684;28;20020;-71
2023/01/24 05:51:37;;;;;;;11.95;10.75;;;4.60;99.90;;;;;;2108121;28;20032;-71
2023/01/24 05:52:38;;;;;;;12.82;11.52;;;4.60;99.90;;;;;;2106086;28;20012;-71
2023/01/24 05:53:40;;;;;;;12.65;11.45;;;4.60;99.90;;;;;;2109072;28;20694;-71
2023/01/24 05:54:41;;;;;;;11.88;10.68;;;4.60;99.90;;;;;;2107777;28;20569;-71
2023/01/24 05:55:41;;;;;;;12.23;10.90;;;4.60;99.90;;;;;;2108283;28;20399;-71
2023/01/24 05:56:42;;;;;;;12.43;10.73;;;4.60;99.90;;;;;;2109057;28;20048;-71
2023/01/24 05:57:42;;;;;;;12.15;10.90;;;4.60;99.90;;;;;;2109660;27;20016;-71